createdAt,value
2019-02-28T00:00:44.363Z,17.90
2019-02-28T00:03:13.060Z,18.33
2019-02-28T00:05:41.483Z,17.80
2019-02-28T00:08:09.930Z,18.40
2019-02-28T00:10:38.376Z,18.23
2019-02-28T00:13:06.804Z,19.00
2019-02-28T00:15:35.262Z,18.27
2019-02-28T00:18:03.824Z,19.20
2019-02-28T00:20:32.642Z,17.87
2019-02-28T00:23:01.148Z,19.63
2019-02-28T00:25:29.722Z,18.33
2019-02-28T00:27:58.164Z,16.67
2019-02-28T00:30:26.958Z,14.77
2019-02-28T00:32:56.324Z,16.20
2019-02-28T00:35:25.804Z,14.70
2019-02-28T00:37:56.631Z,16.33
2019-02-28T00:40:24.683Z,16.47
2019-02-28T00:42:53.375Z,15.17
2019-02-28T00:45:21.831Z,16.57
2019-02-28T00:47:50.252Z,15.90
2019-02-28T00:50:18.698Z,15.77
2019-02-28T00:52:47.144Z,15.63
2019-02-28T00:55:15.690Z,14.33
2019-02-28T00:57:44.455Z,14.73
2019-02-28T01:00:20.400Z,13.63
2019-02-28T01:02:51.873Z,13.43
2019-02-28T01:05:19.315Z,13.43
2019-02-28T01:07:48.926Z,13.73
2019-02-28T01:10:17.960Z,13.07
2019-02-28T01:12:46.403Z,13.80
2019-02-28T01:15:17.341Z,13.07
2019-02-28T01:17:46.121Z,13.27
2019-02-28T01:20:16.419Z,13.87
2019-02-28T01:22:45.379Z,13.73
2019-02-28T01:25:18.367Z,14.40
2019-02-28T01:27:46.859Z,13.43
2019-02-28T01:30:16.157Z,14.60
2019-02-28T01:32:49.847Z,14.40
2019-02-28T01:35:15.251Z,14.03
2019-02-28T01:37:43.684Z,14.33
2019-02-28T01:40:16.831Z,13.50
2019-02-28T01:42:45.262Z,13.40
2019-02-28T01:45:14.155Z,13.00
2019-02-28T01:47:42.865Z,12.90
2019-02-28T01:50:12.461Z,12.37
2019-02-28T01:52:44.326Z,13.60
2019-02-28T01:55:11.563Z,13.00
2019-02-28T01:57:44.009Z,14.47
2019-02-28T02:00:13.832Z,14.17
2019-02-28T02:02:42.269Z,13.93
2019-02-28T02:05:11.034Z,14.60
2019-02-28T02:07:39.527Z,15.03
2019-02-28T02:10:12.960Z,16.10
2019-02-28T02:12:41.395Z,16.40
2019-02-28T02:15:11.552Z,16.03
2019-02-28T02:17:40.260Z,15.10
2019-02-28T02:20:11.443Z,16.30
2019-02-28T02:22:40.628Z,17.47
2019-02-28T02:25:10.870Z,16.60
2019-02-28T02:27:39.562Z,16.90
2019-02-28T02:30:19.613Z,16.17
2019-02-28T02:32:48.186Z,15.40
2019-02-28T02:35:16.779Z,13.80
2019-02-28T02:37:45.224Z,16.83
2019-02-28T02:40:15.743Z,16.73
2019-02-28T02:42:48.474Z,15.70
2019-02-28T02:45:15.170Z,15.90
2019-02-28T02:47:44.007Z,16.13
2019-02-28T02:50:14.228Z,17.03
2019-02-28T02:52:43.311Z,18.13
2019-02-28T02:55:12.488Z,17.30
2019-02-28T02:57:41.175Z,17.37
2019-02-28T03:00:18.400Z,18.83
2019-02-28T03:02:47.188Z,17.10
2019-02-28T03:05:15.785Z,19.13
2019-02-28T03:07:44.632Z,17.60
2019-02-28T03:10:17.273Z,17.93
2019-02-28T03:12:45.186Z,18.90
2019-02-28T03:15:15.650Z,18.37
2019-02-28T03:17:47.335Z,19.00
2019-02-28T03:20:14.635Z,19.40
2019-02-28T03:22:43.154Z,17.87
2019-02-28T03:25:15.691Z,19.73
2019-02-28T03:27:44.141Z,19.00
2019-02-28T03:30:33.614Z,20.70
2019-02-28T03:32:47.195Z,22.43
2019-02-28T03:35:15.635Z,23.10
2019-02-28T03:37:44.136Z,21.23
2019-02-28T03:40:13.920Z,22.93
2019-02-28T03:42:42.499Z,23.20
2019-02-28T03:45:12.743Z,22.73
2019-02-28T03:47:41.199Z,24.97
2019-02-28T03:50:10.367Z,27.43
2019-02-28T03:52:43.825Z,28.27
2019-02-28T03:55:11.292Z,26.20
2019-02-28T03:57:40.091Z,27.80
2019-02-28T04:00:22.187Z,26.03
2019-02-28T04:02:57.067Z,29.97
2019-02-28T04:05:26.781Z,29.70
2019-02-28T04:07:53.451Z,29.93
2019-02-28T04:10:22.624Z,30.23
2019-02-28T04:12:51.281Z,29.97
2019-02-28T04:15:20.378Z,30.70
2019-02-28T04:17:49.164Z,32.90
2019-02-28T04:20:17.806Z,32.87
2019-02-28T04:22:46.634Z,36.33
2019-02-28T04:25:15.220Z,35.47
2019-02-28T04:27:43.659Z,34.00
2019-02-28T04:30:13.703Z,35.23
2019-02-28T04:32:42.225Z,34.33
2019-02-28T04:35:11.177Z,33.67
2019-02-28T04:37:44.671Z,35.77
2019-02-28T04:40:12.302Z,35.50
2019-02-28T04:42:40.744Z,34.43
2019-02-28T04:45:11.778Z,36.37
2019-02-28T04:47:40.472Z,35.27
2019-02-28T04:50:11.549Z,37.93
2019-02-28T04:52:40.075Z,40.90
2019-02-28T04:55:10.136Z,40.43
2019-02-28T04:57:38.587Z,40.07
2019-02-28T05:00:10.228Z,38.40
2019-02-28T05:02:38.683Z,38.57
2019-02-28T05:05:12.106Z,40.67
2019-02-28T05:07:37.631Z,37.80
2019-02-28T05:10:08.269Z,39.30
2019-02-28T05:12:39.884Z,39.70
2019-02-28T05:15:09.172Z,38.70
2019-02-28T05:17:37.626Z,40.60
2019-02-28T05:20:10.772Z,38.80
2019-02-28T05:22:38.433Z,40.10
2019-02-28T05:25:08.805Z,40.30
2019-02-28T05:27:37.252Z,39.03
2019-02-28T05:30:09.012Z,40.93
2019-02-28T05:32:37.474Z,38.83
2019-02-28T05:35:06.611Z,39.30
2019-02-28T05:37:35.056Z,39.57
2019-02-28T05:40:06.248Z,39.50
2019-02-28T05:42:35.361Z,39.77
2019-02-28T05:45:04.432Z,39.07
2019-02-28T05:47:33.174Z,39.30
2019-02-28T05:50:01.678Z,38.20
2019-02-28T05:52:30.424Z,38.97
2019-02-28T05:55:00.573Z,37.63
2019-02-28T05:57:29.322Z,39.03
2019-02-28T06:00:01.429Z,37.93
2019-02-28T06:02:28.507Z,38.90
2019-02-28T06:04:56.945Z,40.13
2019-02-28T06:07:25.994Z,40.07
2019-02-28T06:09:55.560Z,40.87
2019-02-28T06:12:23.999Z,38.40
2019-02-28T06:14:52.464Z,39.33
2019-02-28T06:17:21.878Z,38.63
2019-02-28T06:19:50.437Z,40.00
2019-02-28T06:22:19.210Z,40.33
2019-02-28T06:24:47.654Z,40.37
2019-02-28T06:27:16.089Z,41.07
2019-02-28T06:29:44.534Z,42.03
2019-02-28T06:32:13.714Z,41.27
2019-02-28T06:34:43.085Z,41.37
2019-02-28T06:37:11.560Z,44.37
2019-02-28T06:39:40.311Z,42.67
2019-02-28T06:42:11.818Z,42.30
2019-02-28T06:44:39.220Z,42.27
2019-02-28T06:47:07.697Z,44.23
2019-02-28T06:49:40.880Z,43.50
2019-02-28T06:52:06.815Z,42.60
2019-02-28T06:54:35.286Z,44.83
2019-02-28T06:57:03.987Z,45.17
2019-02-28T06:59:32.679Z,45.70
2019-02-28T07:02:01.107Z,42.50
2019-02-28T07:04:29.887Z,44.30
2019-02-28T07:06:58.331Z,46.70
2019-02-28T07:09:26.792Z,43.67
2019-02-28T07:11:55.750Z,44.17
2019-02-28T07:14:24.279Z,42.57
2019-02-28T07:16:52.973Z,41.00
2019-02-28T07:19:21.418Z,43.07
2019-02-28T07:21:49.860Z,44.27
2019-02-28T07:24:18.311Z,40.77
2019-02-28T07:26:48.216Z,42.33
2019-02-28T07:29:16.788Z,44.10
2019-02-28T07:31:45.278Z,44.07
2019-02-28T07:34:16.765Z,43.50
2019-02-28T07:36:44.823Z,41.90
2019-02-28T07:39:14.311Z,43.40
2019-02-28T07:41:43.011Z,44.17
2019-02-28T07:44:11.728Z,46.97
2019-02-28T07:46:42.482Z,45.70
2019-02-28T07:49:10.344Z,46.37
2019-02-28T07:51:38.782Z,44.70
2019-02-28T07:54:07.244Z,45.63
2019-02-28T07:56:42.697Z,46.50
2019-02-28T07:59:06.380Z,43.97
2019-02-28T08:01:35.155Z,48.23
2019-02-28T08:04:03.962Z,46.67
2019-02-28T08:06:32.735Z,45.83
2019-02-28T08:09:01.759Z,47.33
2019-02-28T08:11:31.345Z,47.43
2019-02-28T08:14:00.137Z,45.37
2019-02-28T08:16:30.589Z,48.23
2019-02-28T08:18:58.814Z,47.43
2019-02-28T08:21:27.304Z,48.70
2019-02-28T08:23:55.762Z,45.97
2019-02-28T08:26:24.587Z,49.83
2019-02-28T08:28:53.114Z,46.40
2019-02-28T08:31:21.574Z,46.10
2019-02-28T08:33:50.039Z,47.10
2019-02-28T08:36:18.504Z,47.17
2019-02-28T08:38:46.945Z,45.50
2019-02-28T08:41:15.407Z,47.10
2019-02-28T08:43:44.673Z,45.23
2019-02-28T08:46:14.309Z,45.63
2019-02-28T08:48:42.741Z,47.33
2019-02-28T08:51:11.211Z,47.33
2019-02-28T08:53:39.652Z,45.60
2019-02-28T08:56:11.050Z,47.23
2019-02-28T08:58:38.570Z,47.10
2019-02-28T09:01:07.784Z,46.60
2019-02-28T09:03:36.431Z,49.87
2019-02-28T09:06:07.266Z,47.90
2019-02-28T09:08:35.327Z,45.87
2019-02-28T09:11:04.066Z,45.43
2019-02-28T09:13:32.914Z,45.93
2019-02-28T09:16:01.978Z,45.77
2019-02-28T09:18:31.813Z,48.20
2019-02-28T09:21:00.287Z,45.90
2019-02-28T09:23:29.095Z,46.47
2019-02-28T09:25:57.652Z,45.67
2019-02-28T09:28:26.378Z,46.37
2019-02-28T09:30:57.466Z,44.50
2019-02-28T09:33:25.918Z,46.60
2019-02-28T09:35:54.383Z,46.80
2019-02-28T09:38:23.095Z,45.30
2019-02-28T09:40:51.585Z,43.97
2019-02-28T09:43:20.025Z,47.60
2019-02-28T09:45:48.472Z,46.20
2019-02-28T09:48:16.985Z,42.93
2019-02-28T09:50:45.444Z,48.30
2019-02-28T09:53:16.472Z,47.23
2019-02-28T09:55:44.323Z,47.80
2019-02-28T09:58:12.750Z,47.97
2019-02-28T10:00:43.314Z,45.93
2019-02-28T10:03:11.435Z,47.93
2019-02-28T10:05:42.402Z,49.33
2019-02-28T10:08:10.365Z,46.37
2019-02-28T10:10:38.802Z,47.00
2019-02-28T10:13:07.543Z,48.73
2019-02-28T10:15:38.755Z,48.90
2019-02-28T10:18:06.505Z,49.47
2019-02-28T10:20:39.823Z,49.27
2019-02-28T10:23:08.596Z,48.67
2019-02-28T10:25:40.106Z,47.17
2019-02-28T10:28:07.203Z,49.10
2019-02-28T10:30:35.735Z,49.00
2019-02-28T10:33:04.305Z,49.37
2019-02-28T10:35:33.440Z,47.40
2019-02-28T10:38:03.208Z,47.53
2019-02-28T10:40:32.216Z,48.07
2019-02-28T10:43:00.700Z,50.67
2019-02-28T10:45:29.192Z,46.90
2019-02-28T10:48:02.861Z,46.10
2019-02-28T10:50:33.572Z,46.73
2019-02-28T10:53:05.455Z,44.83
2019-02-28T10:55:32.952Z,45.83
2019-02-28T10:58:01.484Z,44.87
2019-02-28T11:00:39.282Z,44.07
2019-02-28T11:03:07.802Z,44.80
2019-02-28T11:05:39.604Z,44.10
2019-02-28T11:08:12.806Z,40.33
2019-02-28T11:10:42.468Z,39.03
2019-02-28T11:13:13.795Z,38.30
2019-02-28T11:15:47.975Z,36.23
2019-02-28T11:18:13.803Z,40.20
2019-02-28T11:20:42.515Z,41.30
2019-02-28T11:23:14.952Z,36.47
2019-02-28T11:25:42.188Z,36.60
2019-02-28T11:28:11.376Z,38.50
2019-02-28T11:30:44.055Z,39.30
2019-02-28T11:33:11.856Z,37.33
2019-02-28T11:35:40.718Z,41.42
2019-02-28T11:38:09.290Z,36.43
2019-02-28T11:40:40.504Z,38.37
2019-02-28T11:43:08.286Z,35.33
2019-02-28T11:45:38.572Z,33.83
2019-02-28T11:48:09.225Z,34.40
2019-02-28T11:50:41.223Z,34.07
2019-02-28T11:53:07.824Z,34.53
2019-02-28T11:55:36.264Z,34.57
2019-02-28T11:58:05.081Z,34.70
2019-02-28T12:00:38.257Z,34.60
2019-02-28T12:03:06.779Z,32.50
2019-02-28T12:05:35.520Z,32.70
2019-02-28T12:08:09.043Z,31.70
2019-02-28T12:10:34.452Z,34.03
2019-02-28T12:13:02.973Z,35.93
2019-02-28T12:15:33.659Z,34.77
2019-02-28T12:18:04.759Z,34.53
2019-02-28T12:20:32.751Z,33.20
2019-02-28T12:23:01.566Z,33.10
2019-02-28T12:25:30.079Z,33.20
2019-02-28T12:27:59.304Z,33.10
2019-02-28T12:30:31.665Z,34.30
2019-02-28T12:33:00.403Z,34.60
2019-02-28T12:35:28.840Z,35.53
2019-02-28T12:37:57.623Z,34.93
2019-02-28T12:40:31.934Z,35.40
2019-02-28T12:43:00.392Z,35.90
2019-02-28T12:45:33.890Z,37.37
2019-02-28T12:48:02.339Z,37.13
2019-02-28T12:50:31.068Z,37.90
2019-02-28T12:52:59.880Z,37.37
2019-02-28T12:55:28.388Z,38.83
2019-02-28T12:57:57.932Z,40.70
2019-02-28T13:00:29.611Z,38.40
2019-02-28T13:02:58.111Z,35.90
2019-02-28T13:05:26.880Z,38.67
2019-02-28T13:07:55.339Z,38.43
2019-02-28T13:10:28.106Z,38.30
2019-02-28T13:13:05.261Z,40.17
2019-02-28T13:15:24.560Z,38.27
2019-02-28T13:17:53.153Z,37.90
2019-02-28T13:20:33.504Z,41.50
2019-02-28T13:23:01.211Z,43.17
2019-02-28T13:25:29.920Z,44.00
2019-02-28T13:27:58.398Z,40.90
2019-02-28T13:30:27.831Z,44.63
2019-02-28T13:32:56.993Z,45.47
2019-02-28T13:35:30.571Z,44.47
2019-02-28T13:37:59.090Z,45.77
2019-02-28T13:40:27.547Z,46.37
2019-02-28T13:42:55.985Z,46.00
2019-02-28T13:45:25.098Z,45.93
2019-02-28T13:47:53.535Z,49.57
2019-02-28T13:50:25.834Z,49.00
2019-02-28T13:52:54.484Z,49.60
2019-02-28T13:55:23.076Z,48.23
2019-02-28T13:57:51.803Z,50.70
2019-02-28T14:00:29.252Z,50.50
2019-02-28T14:02:59.522Z,50.60
2019-02-28T14:05:28.421Z,49.97
2019-02-28T14:07:57.304Z,50.60
2019-02-28T14:10:29.760Z,50.83
2019-02-28T14:12:58.149Z,45.83
2019-02-28T14:15:41.242Z,47.03
2019-02-28T14:18:10.937Z,46.90
2019-02-28T14:20:40.051Z,46.30
2019-02-28T14:23:08.880Z,44.13
2019-02-28T14:25:39.951Z,41.83
2019-02-28T14:28:08.088Z,42.50
2019-02-28T14:30:36.985Z,42.50
2019-02-28T14:33:05.840Z,44.07
2019-02-28T14:35:37.513Z,41.40
2019-02-28T14:38:05.064Z,40.80
2019-02-28T14:40:33.528Z,40.00
2019-02-28T14:43:02.038Z,41.27
2019-02-28T14:45:42.746Z,41.03
2019-02-28T14:48:09.407Z,39.73
2019-02-28T14:50:38.123Z,41.10
2019-02-28T14:53:06.620Z,46.27
2019-02-28T14:55:37.292Z,51.60
2019-02-28T14:58:05.545Z,54.50
2019-02-28T15:00:35.550Z,54.57
2019-02-28T15:03:04.321Z,52.20
2019-02-28T15:05:38.572Z,48.70
2019-02-28T15:08:07.105Z,50.20
2019-02-28T15:10:36.457Z,47.47
2019-02-28T15:13:05.285Z,46.27
2019-02-28T15:15:36.165Z,47.87
2019-02-28T15:18:04.894Z,46.97
2019-02-28T15:20:33.434Z,47.03
2019-02-28T15:23:02.304Z,46.30
2019-02-28T15:25:31.422Z,45.67
2019-02-28T15:27:59.865Z,42.40
2019-02-28T15:30:33.702Z,42.23
2019-02-28T15:33:03.592Z,42.87
2019-02-28T15:35:32.284Z,43.07
2019-02-28T15:38:00.851Z,41.57
2019-02-28T15:40:40.680Z,40.10
2019-02-28T15:43:09.357Z,42.20
2019-02-28T15:45:38.210Z,41.67
2019-02-28T15:48:06.641Z,41.40
2019-02-28T15:50:35.177Z,41.10
2019-02-28T15:53:03.757Z,40.90
2019-02-28T15:55:35.302Z,38.13
2019-02-28T15:58:05.719Z,38.67
2019-02-28T16:00:37.680Z,36.53
2019-02-28T16:03:06.376Z,36.97
2019-02-28T16:05:34.916Z,35.03
2019-02-28T16:08:08.808Z,34.90
2019-02-28T16:10:34.675Z,34.80
2019-02-28T16:13:04.784Z,34.37
2019-02-28T16:15:33.321Z,33.53
2019-02-28T16:18:02.033Z,33.90
2019-02-28T16:20:31.950Z,34.97
2019-02-28T16:23:01.229Z,32.43
2019-02-28T16:25:37.693Z,33.17
2019-02-28T16:28:08.938Z,33.40
2019-02-28T16:30:38.738Z,31.43
2019-02-28T16:33:07.256Z,32.83
2019-02-28T16:35:36.215Z,32.03
2019-02-28T16:38:06.577Z,30.57
2019-02-28T16:40:35.285Z,31.40
2019-02-28T16:43:03.773Z,30.60
2019-02-28T16:45:42.308Z,29.20
2019-02-28T16:48:11.056Z,28.60
2019-02-28T16:50:39.813Z,26.43
2019-02-28T16:53:14.673Z,26.50
2019-02-28T16:55:38.551Z,26.23
2019-02-28T16:58:07.040Z,24.57
2019-02-28T17:00:35.488Z,23.57
2019-02-28T17:03:07.292Z,22.73
2019-02-28T17:05:34.916Z,20.67
2019-02-28T17:08:03.365Z,20.10
2019-02-28T17:10:33.456Z,19.53
2019-02-28T17:13:18.626Z,20.47
2019-02-28T17:16:02.356Z,21.17
2019-02-28T17:18:38.583Z,18.03
2019-02-28T17:21:07.061Z,16.70
2019-02-28T17:23:36.992Z,16.00
2019-02-28T17:26:05.751Z,15.90
2019-02-28T17:28:42.154Z,15.60
2019-02-28T17:31:12.503Z,14.30
2019-02-28T17:33:43.317Z,13.73
2019-02-28T17:36:12.547Z,13.50
2019-02-28T17:38:41.476Z,12.67
2019-02-28T17:41:11.092Z,13.20
2019-02-28T17:43:40.062Z,12.30
2019-02-28T17:46:14.605Z,13.17
2019-02-28T17:48:52.364Z,11.87
2019-02-28T17:51:25.203Z,12.43
2019-02-28T17:53:56.996Z,11.30
2019-02-28T17:56:56.907Z,10.97
2019-02-28T18:00:03.233Z,10.30
2019-02-28T18:02:46.982Z,11.43
2019-02-28T18:05:33.798Z,11.80
2019-02-28T18:08:24.293Z,9.93
2019-02-28T18:11:07.689Z,10.47
2019-02-28T18:13:57.140Z,10.67
2019-02-28T18:16:28.735Z,10.60
2019-02-28T18:19:22.768Z,9.63
2019-02-28T18:22:03.372Z,9.40
2019-02-28T18:25:03.628Z,9.80
2019-02-28T18:28:08.313Z,9.90
2019-02-28T18:31:09.504Z,10.07
2019-02-28T18:33:41.767Z,9.30
2019-02-28T18:36:13.032Z,8.93
2019-02-28T18:38:41.475Z,8.33
2019-02-28T18:41:10.284Z,9.43
2019-02-28T18:43:40.425Z,8.90
2019-02-28T18:46:09.051Z,8.10
2019-02-28T18:48:37.489Z,8.70
2019-02-28T18:51:06.012Z,7.93
2019-02-28T18:53:34.465Z,8.53
2019-02-28T18:56:02.905Z,7.17
2019-02-28T18:58:31.341Z,7.90
2019-02-28T19:01:00.146Z,8.13
2019-02-28T19:03:28.963Z,8.33
2019-02-28T19:05:57.388Z,7.70
2019-02-28T19:08:25.839Z,9.13
2019-02-28T19:10:55.009Z,9.20
2019-02-28T19:13:23.537Z,7.83
2019-02-28T19:15:51.970Z,7.87
2019-02-28T19:18:20.439Z,9.23
2019-02-28T19:20:49.240Z,8.93
2019-02-28T19:23:17.675Z,9.50
2019-02-28T19:25:46.120Z,9.40
2019-02-28T19:28:14.578Z,8.60
2019-02-28T19:30:43.312Z,9.00
2019-02-28T19:33:12.055Z,8.90
2019-02-28T19:35:40.787Z,9.80
2019-02-28T19:38:09.249Z,9.23
2019-02-28T19:40:37.702Z,9.00
2019-02-28T19:43:06.214Z,9.30
2019-02-28T19:45:38.381Z,10.27
2019-02-28T19:48:06.896Z,9.40
2019-02-28T19:50:35.408Z,10.10
2019-02-28T19:53:03.932Z,10.97
2019-02-28T19:55:32.775Z,9.43
2019-02-28T19:58:01.529Z,10.73
2019-02-28T20:00:30.034Z,10.33
2019-02-28T20:02:58.567Z,11.23
2019-02-28T20:05:27.456Z,11.50
2019-02-28T20:07:56.251Z,13.00
2019-02-28T20:10:24.740Z,15.60
2019-02-28T20:12:53.488Z,14.60
2019-02-28T20:15:24.052Z,14.03
2019-02-28T20:17:52.501Z,11.90
2019-02-28T20:20:23.896Z,10.00
2019-02-28T20:22:53.941Z,8.30
2019-02-28T20:25:22.468Z,6.30
2019-02-28T20:27:50.891Z,6.70
2019-02-28T20:30:21.269Z,6.13
2019-02-28T20:32:49.821Z,7.07
2019-02-28T20:35:26.259Z,6.60
2019-02-28T20:37:48.872Z,7.20
2019-02-28T20:40:26.046Z,7.90
2019-02-28T20:42:54.843Z,8.37
2019-02-28T20:45:23.640Z,8.90
2019-02-28T20:47:52.058Z,9.70
2019-02-28T20:50:23.594Z,10.73
2019-02-28T20:52:52.143Z,11.03
2019-02-28T20:55:20.895Z,9.70
2019-02-28T20:57:49.323Z,10.37
2019-02-28T21:00:20.335Z,10.73
2019-02-28T21:02:48.776Z,11.13
2019-02-28T21:05:17.258Z,11.50
2019-02-28T21:07:45.744Z,10.73
2019-02-28T21:10:14.218Z,12.03
2019-02-28T21:12:42.736Z,11.93
2019-02-28T21:15:14.033Z,13.10
2019-02-28T21:17:42.464Z,13.73
2019-02-28T21:20:14.301Z,13.20
2019-02-28T21:22:42.803Z,13.83
2019-02-28T21:25:16.600Z,15.00
2019-02-28T21:27:45.328Z,15.20
2019-02-28T21:30:25.117Z,15.27
2019-02-28T21:32:53.561Z,15.63
2019-02-28T21:35:22.347Z,14.60
2019-02-28T21:37:51.248Z,13.20
2019-02-28T21:40:21.992Z,12.80
2019-02-28T21:42:50.682Z,14.10
2019-02-28T21:45:23.950Z,13.40
2019-02-28T21:47:52.676Z,12.33
2019-02-28T21:50:21.141Z,13.50
2019-02-28T21:52:49.566Z,13.40
2019-02-28T21:55:18.648Z,11.90
2019-02-28T21:57:47.084Z,11.90
2019-02-28T22:00:26.844Z,10.67
2019-02-28T22:02:55.271Z,11.70
2019-02-28T22:05:23.803Z,10.70
2019-02-28T22:07:52.533Z,11.60
2019-02-28T22:10:20.992Z,12.30
2019-02-28T22:12:49.728Z,13.50
2019-02-28T22:15:20.087Z,15.67
2019-02-28T22:17:48.518Z,15.50
2019-02-28T22:20:17.028Z,15.80
2019-02-28T22:22:45.529Z,18.40
2019-02-28T22:25:15.406Z,17.60
2019-02-28T22:27:43.972Z,17.97
2019-02-28T22:30:32.891Z,17.03
2019-02-28T22:33:19.419Z,18.13
2019-02-28T22:35:49.802Z,18.07
2019-02-28T22:38:18.239Z,22.60
2019-02-28T22:40:46.683Z,22.67
2019-02-28T22:43:15.155Z,25.10
2019-02-28T22:45:43.630Z,22.33
2019-02-28T22:48:12.384Z,24.17
2019-02-28T22:50:40.831Z,23.77
2019-02-28T22:53:09.273Z,23.13
2019-02-28T22:55:37.738Z,23.87
2019-02-28T22:58:10.727Z,22.77
2019-02-28T23:01:07.979Z,20.47
2019-02-28T23:03:36.754Z,21.10
2019-02-28T23:06:05.736Z,21.70
2019-02-28T23:08:34.536Z,20.33
2019-02-28T23:11:03.297Z,20.17
2019-02-28T23:13:31.786Z,20.40
2019-02-28T23:16:00.243Z,23.37
2019-02-28T23:18:29.057Z,23.70
2019-02-28T23:20:57.508Z,23.33
2019-02-28T23:23:25.958Z,26.10
2019-02-28T23:25:54.522Z,25.80
2019-02-28T23:28:25.555Z,24.80
2019-02-28T23:31:30.200Z,25.63
2019-02-28T23:34:04.380Z,24.70
2019-02-28T23:36:32.814Z,25.40
2019-02-28T23:39:01.247Z,25.80
2019-02-28T23:41:29.688Z,24.87
2019-02-28T23:43:58.119Z,26.70
2019-02-28T23:46:26.572Z,26.20
2019-02-28T23:48:54.995Z,25.30
2019-02-28T23:51:23.745Z,27.00
2019-02-28T23:53:52.171Z,24.40
2019-02-28T23:56:20.916Z,25.13
2019-02-28T23:58:49.352Z,25.07
